Delta Virtual Airport Information Service

Muscat International Airport

ICAO: OOMS Country: Oman
Latitude: 23.5933 Longitude: 58.2844
Latest Arrival : UAE866 (OMDB-OOMS) Latest Departure : UAE867 (OOMS-OMDB)


WX CaptureLIVE
Data provided by noaa.gov | Fetched at 04:19:37

METAR : OOMS 030950Z 01009KT 9999 FEW025 27/19 Q1015 NOSIG

TAF : OOMS 030500Z 0306/0412 02010KT 8000 SCT030 BECMG 0316/0318 23008KT PROB30 TEMPO 0316/0322 BKN040 BECMG 0406/0408 34012KT


Runway Data for OOMS
Data provided by openaviationdata.com

Runway ID Mag Var Hdg Length Elevation Surface ILS Freq ILS Id ILS Slope
2 0 19° 2468 ft 48 ft Dirt -- -- --
8 0 84° 11769 ft 48 ft Asphalt 108.3 IMW 3
20 0 199° 2468 ft 48 ft Dirt -- -- --
26 0 264° 11769 ft 48 ft Asphalt 110.3 ISB 3

Muscat International Airport, Oman
Use only for reference purposes



Not for navigational purposes.